Terminal Aerodrome Forecast
Issued by NWS

Home | Current Version | Previous Version | Text Only | Print | Product List | Glossary On
Versions: 1 2 3 4 5 6 7 8 9 10 11 12 13
000
FTUS46 KHNX 302339
TAFBFL
TAF
KBFL 302339Z 3100/3124 33006KT P6SM BKN120
     FM311600 18004KT P6SM BKN150
     FM311900 30009KT P6SM BKN150=

USA.gov is the U.S. government's official web portal to all federal, state and local government web resources and services.